createdAt,value
2017-10-11T00:02:13.179Z,18.57
2017-10-11T00:04:41.802Z,18.43
2017-10-11T00:07:10.194Z,17.53
2017-10-11T00:09:38.495Z,19.10
2017-10-11T00:12:07.555Z,19.23
2017-10-11T00:14:35.875Z,17.60
2017-10-11T00:17:04.178Z,17.47
2017-10-11T00:19:33.283Z,18.40
2017-10-11T00:22:01.566Z,23.40
2017-10-11T00:24:29.863Z,23.27
2017-10-11T00:26:58.160Z,21.97
2017-10-11T00:29:27.219Z,26.97
2017-10-11T00:31:55.514Z,19.17
2017-10-11T00:34:23.804Z,19.63
2017-10-11T00:36:52.153Z,18.33
2017-10-11T00:39:20.455Z,18.63
2017-10-11T00:41:48.764Z,21.03
2017-10-11T00:44:17.054Z,23.83
2017-10-11T00:46:45.375Z,25.30
2017-10-11T00:49:13.670Z,23.10
2017-10-11T00:51:42.752Z,20.20
2017-10-11T00:54:11.053Z,15.00
2017-10-11T00:56:39.342Z,14.50
2017-10-11T00:59:07.669Z,16.57
2017-10-11T01:01:36.047Z,19.80
2017-10-11T01:04:04.364Z,38.73
2017-10-11T01:06:32.653Z,17.27
2017-10-11T01:09:01.801Z,15.70
2017-10-11T01:11:30.090Z,15.87
2017-10-11T01:13:58.378Z,14.73
2017-10-11T01:16:26.683Z,14.67
2017-10-11T01:18:54.974Z,16.03
2017-10-11T01:21:23.261Z,14.60
2017-10-11T01:23:51.563Z,16.20
2017-10-11T01:26:20.644Z,15.67
2017-10-11T01:28:48.944Z,23.10
2017-10-11T01:31:17.254Z,11.70
2017-10-11T01:33:46.320Z,15.90
2017-10-11T01:36:14.680Z,19.10
2017-10-11T01:38:43.908Z,18.07
2017-10-11T01:41:12.212Z,20.47
2017-10-11T01:43:40.675Z,26.50
2017-10-11T01:46:09.059Z,22.10
2017-10-11T01:48:37.399Z,20.80
2017-10-11T01:51:05.723Z,22.67
2017-10-11T01:53:34.777Z,19.73
2017-10-11T01:56:03.080Z,18.00
2017-10-11T01:58:31.378Z,19.97
2017-10-11T02:00:59.672Z,19.10
2017-10-11T02:03:28.207Z,16.80
2017-10-11T02:05:56.494Z,16.20
2017-10-11T02:08:24.925Z,18.70
2017-10-11T02:10:53.219Z,19.53
2017-10-11T02:13:21.515Z,17.57
2017-10-11T02:15:49.813Z,19.57
2017-10-11T02:18:18.887Z,17.87
2017-10-11T02:20:47.188Z,20.83
2017-10-11T02:23:15.480Z,23.77
2017-10-11T02:25:43.827Z,23.23
2017-10-11T02:28:12.123Z,17.77
2017-10-11T02:30:40.430Z,15.83
2017-10-11T02:33:08.727Z,19.30
2017-10-11T02:35:37.026Z,16.97
2017-10-11T02:38:06.111Z,19.80
2017-10-11T02:40:34.412Z,19.70
2017-10-11T02:43:02.726Z,22.73
2017-10-11T02:45:31.020Z,21.67
2017-10-11T02:47:59.350Z,23.40
2017-10-11T02:50:27.657Z,18.43
2017-10-11T02:52:55.946Z,18.83
2017-10-11T02:55:24.245Z,19.77
2017-10-11T02:57:52.723Z,18.73
2017-10-11T03:00:21.012Z,20.47
2017-10-11T03:02:49.307Z,22.13
2017-10-11T03:05:17.603Z,22.50
2017-10-11T03:07:45.893Z,25.00
2017-10-11T03:10:14.223Z,28.60
2017-10-11T03:12:43.299Z,23.17
2017-10-11T03:15:11.599Z,21.60
2017-10-11T03:17:39.899Z,21.77
2017-10-11T03:20:08.203Z,15.63
2017-10-11T03:22:36.500Z,18.33
2017-10-11T03:25:04.829Z,16.23
2017-10-11T03:27:33.975Z,16.60
2017-10-11T03:30:03.045Z,14.57
2017-10-11T03:32:31.368Z,16.50
2017-10-11T03:34:59.675Z,19.17
2017-10-11T03:37:28.738Z,18.10
2017-10-11T03:39:57.050Z,19.40
2017-10-11T03:42:25.377Z,17.97
2017-10-11T03:44:53.671Z,20.63
2017-10-11T03:47:21.962Z,20.40
2017-10-11T03:49:50.255Z,22.37
2017-10-11T03:52:18.686Z,24.60
2017-10-11T03:54:46.981Z,22.87
2017-10-11T03:57:15.275Z,29.17
2017-10-11T03:59:43.579Z,23.10
2017-10-11T04:02:12.645Z,29.70
2017-10-11T04:04:40.971Z,24.57
2017-10-11T04:07:10.031Z,26.30
2017-10-11T04:09:38.347Z,24.83
2017-10-11T04:12:06.660Z,24.67
2017-10-11T04:14:35.710Z,28.13
2017-10-11T04:17:04.219Z,24.80
2017-10-11T04:19:32.962Z,21.43
2017-10-11T04:22:02.018Z,22.80
2017-10-11T04:24:30.311Z,20.50
2017-10-11T04:26:58.603Z,20.73
2017-10-11T04:29:32.501Z,19.57
2017-10-11T04:32:00.807Z,21.03
2017-10-11T04:34:29.199Z,19.93
2017-10-11T04:36:58.351Z,17.43
2017-10-11T04:39:26.735Z,16.33
2017-10-11T04:41:55.111Z,16.27
2017-10-11T04:44:23.517Z,17.10
2017-10-11T04:46:52.641Z,14.87
2017-10-11T04:49:21.794Z,14.13
2017-10-11T04:51:50.110Z,15.07
2017-10-11T04:54:18.423Z,15.80
2017-10-11T04:56:46.720Z,21.97
2017-10-11T04:59:15.041Z,23.90
2017-10-11T05:01:43.377Z,21.03
2017-10-11T05:04:11.797Z,20.87
2017-10-11T05:06:40.114Z,20.50
2017-10-11T05:09:08.556Z,22.30
2017-10-11T05:11:37.629Z,21.17
2017-10-11T05:14:06.159Z,19.60
2017-10-11T05:16:34.442Z,23.60
2017-10-11T05:19:03.505Z,21.70
2017-10-11T05:21:31.826Z,19.70
2017-10-11T05:24:00.123Z,21.30
2017-10-11T05:26:28.728Z,22.73
2017-10-11T05:28:57.857Z,17.97
2017-10-11T05:31:26.186Z,21.87
2017-10-11T05:33:54.525Z,23.10
2017-10-11T05:36:22.923Z,20.73
2017-10-11T05:38:51.296Z,21.87
2017-10-11T05:41:20.447Z,20.17
2017-10-11T05:43:48.791Z,25.30
2017-10-11T05:46:17.214Z,18.97
2017-10-11T05:48:45.610Z,18.90
2017-10-11T05:51:14.026Z,20.57
2017-10-11T05:53:42.335Z,19.93
2017-10-11T05:56:10.641Z,21.60
2017-10-11T05:58:39.753Z,21.47
2017-10-11T06:01:08.098Z,21.53
2017-10-11T06:03:37.043Z,28.13
2017-10-11T06:06:05.370Z,24.83
2017-10-11T06:08:33.682Z,29.90
2017-10-11T06:11:01.971Z,24.97
2017-10-11T06:13:30.262Z,24.63
2017-10-11T06:15:58.577Z,23.93
2017-10-11T06:18:26.877Z,20.40
2017-10-11T06:20:55.203Z,19.73
2017-10-11T06:23:23.496Z,20.13
2017-10-11T06:25:51.922Z,22.10
2017-10-11T06:28:20.225Z,26.77
2017-10-11T06:30:48.581Z,22.47
2017-10-11T06:33:16.925Z,25.83
2017-10-11T06:35:45.243Z,23.73
2017-10-11T06:38:13.549Z,23.40
2017-10-11T06:40:41.859Z,26.77
2017-10-11T06:43:10.158Z,25.03
2017-10-11T06:45:38.463Z,21.83
2017-10-11T06:48:06.760Z,32.83
2017-10-11T06:50:35.816Z,25.37
2017-10-11T06:53:04.133Z,24.60
2017-10-11T06:55:32.446Z,23.73
2017-10-11T06:58:01.506Z,27.00
2017-10-11T07:00:29.827Z,28.67
2017-10-11T07:02:58.116Z,18.03
2017-10-11T07:05:26.442Z,21.27
2017-10-11T07:07:54.742Z,24.27
2017-10-11T07:10:23.155Z,18.87
2017-10-11T07:12:51.464Z,17.83
2017-10-11T07:15:19.765Z,21.83
2017-10-11T07:17:48.062Z,18.63
2017-10-11T07:20:17.154Z,21.33
2017-10-11T07:22:45.596Z,18.93
2017-10-11T07:25:13.923Z,16.60
2017-10-11T07:27:42.229Z,17.83
2017-10-11T07:30:10.527Z,17.80
2017-10-11T07:32:38.811Z,25.73
2017-10-11T07:35:07.134Z,14.97
2017-10-11T07:37:35.442Z,15.30
2017-10-11T07:40:03.759Z,13.50
2017-10-11T07:42:32.095Z,14.40
2017-10-11T07:45:00.388Z,14.33
2017-10-11T07:47:28.705Z,16.33
2017-10-11T07:49:57.128Z,10.40
2017-10-11T07:52:25.410Z,11.00
2017-10-11T07:54:53.719Z,11.27
2017-10-11T07:57:22.019Z,12.40
2017-10-11T07:59:51.115Z,12.83
2017-10-11T08:02:19.440Z,12.27
2017-10-11T08:04:48.365Z,12.90
2017-10-11T08:07:16.697Z,21.03
2017-10-11T08:09:45.004Z,13.10
2017-10-11T08:12:14.082Z,17.50
2017-10-11T08:14:42.375Z,18.70
2017-10-11T08:17:10.703Z,17.13
2017-10-11T08:19:39.001Z,14.60
2017-10-11T08:22:07.324Z,13.60
2017-10-11T08:24:35.622Z,14.17
2017-10-11T08:27:03.908Z,15.00
2017-10-11T08:29:32.244Z,17.60
2017-10-11T08:32:00.535Z,10.57
2017-10-11T08:34:29.948Z,10.03
2017-10-11T08:36:58.567Z,9.80
2017-10-11T08:39:26.851Z,9.93
2017-10-11T08:41:55.170Z,10.17
2017-10-11T08:44:23.455Z,9.13
2017-10-11T08:46:51.764Z,10.43
2017-10-11T08:49:20.060Z,9.30
2017-10-11T08:51:48.357Z,15.20
2017-10-11T08:54:16.643Z,13.97
2017-10-11T08:56:45.729Z,11.30
2017-10-11T08:59:14.040Z,14.43
2017-10-11T09:01:42.336Z,8.07
2017-10-11T09:04:11.525Z,9.10
2017-10-11T09:06:39.810Z,9.10
2017-10-11T09:09:08.132Z,9.77
2017-10-11T09:11:36.418Z,10.73
2017-10-11T09:14:05.476Z,9.50
2017-10-11T09:16:33.759Z,9.77
2017-10-11T09:19:02.202Z,9.80
2017-10-11T09:21:31.267Z,9.20
2017-10-11T09:23:59.558Z,11.70
2017-10-11T09:26:28.139Z,12.70
2017-10-11T09:28:56.429Z,9.90
2017-10-11T09:31:25.154Z,10.23
2017-10-11T09:33:53.472Z,8.40
2017-10-11T09:36:22.530Z,7.60
2017-10-11T09:38:50.831Z,9.93
2017-10-11T09:41:19.134Z,8.63
2017-10-11T09:43:47.426Z,6.60
2017-10-11T09:46:15.850Z,8.10
2017-10-11T09:48:44.148Z,11.40
2017-10-11T09:51:12.647Z,6.47
2017-10-11T09:53:40.935Z,7.43
2017-10-11T09:56:09.232Z,9.53
2017-10-11T09:58:37.527Z,6.00
2017-10-11T10:01:05.820Z,6.10
2017-10-11T10:03:34.110Z,6.37
2017-10-11T10:06:02.607Z,5.73
2017-10-11T10:08:30.891Z,7.00
2017-10-11T10:10:59.208Z,6.70
2017-10-11T10:13:27.515Z,7.50
2017-10-11T10:15:56.558Z,5.43
2017-10-11T10:18:24.847Z,8.10
2017-10-11T10:20:53.267Z,6.53
2017-10-11T10:23:21.562Z,7.13
2017-10-11T10:25:50.048Z,9.77
2017-10-11T10:28:18.658Z,6.53
2017-10-11T10:30:46.986Z,9.23
2017-10-11T10:33:16.175Z,7.63
2017-10-11T10:35:44.460Z,10.93
2017-10-11T10:38:13.561Z,11.03
2017-10-11T10:40:42.659Z,8.40
2017-10-11T10:43:10.960Z,18.53
2017-10-11T10:45:39.254Z,12.17
2017-10-11T10:48:08.315Z,16.67
2017-10-11T10:50:36.971Z,10.40
2017-10-11T10:53:05.292Z,14.53
2017-10-11T10:55:33.596Z,11.10
2017-10-11T10:58:01.900Z,11.30
2017-10-11T11:00:30.178Z,11.50
2017-10-11T11:02:58.587Z,9.27
2017-10-11T11:05:26.892Z,13.53
2017-10-11T11:07:55.170Z,21.20
2017-10-11T11:10:23.463Z,10.60
2017-10-11T11:12:51.757Z,6.83
2017-10-11T11:15:20.050Z,9.50
2017-10-11T11:17:48.329Z,9.40
2017-10-11T11:20:17.419Z,9.67
2017-10-11T11:22:45.751Z,11.20
2017-10-11T11:25:14.848Z,10.43
2017-10-11T11:27:43.923Z,10.33
2017-10-11T11:30:12.269Z,13.53
2017-10-11T11:32:40.600Z,10.90
2017-10-11T11:35:08.901Z,15.90
2017-10-11T11:37:37.210Z,10.20
2017-10-11T11:40:05.512Z,14.40
2017-10-11T11:42:34.557Z,9.60
2017-10-11T11:45:02.855Z,11.60
2017-10-11T11:47:31.159Z,16.13
2017-10-11T11:49:59.447Z,11.07
2017-10-11T11:52:27.744Z,15.00
2017-10-11T11:54:56.042Z,13.23
2017-10-11T11:57:24.338Z,12.10
2017-10-11T11:59:53.438Z,10.33
2017-10-11T12:02:22.381Z,11.80
2017-10-11T12:04:52.342Z,12.30
2017-10-11T12:07:30.370Z,9.03
2017-10-11T12:09:58.654Z,10.57
2017-10-11T12:12:26.941Z,8.03
2017-10-11T12:14:55.258Z,12.70
2017-10-11T12:17:24.358Z,10.10
2017-10-11T12:19:52.697Z,9.47
2017-10-11T12:22:21.003Z,9.90
2017-10-11T12:24:49.357Z,7.67
2017-10-11T12:27:17.800Z,8.90
2017-10-11T12:29:46.113Z,13.73
2017-10-11T12:32:14.455Z,9.13
2017-10-11T12:34:42.783Z,8.80
2017-10-11T12:37:11.069Z,5.93
2017-10-11T12:39:39.396Z,9.27
2017-10-11T12:42:07.723Z,10.93
2017-10-11T12:44:36.042Z,7.60
2017-10-11T12:47:04.318Z,7.63
2017-10-11T12:49:32.637Z,7.63
2017-10-11T12:52:01.690Z,6.60
2017-10-11T12:54:29.994Z,6.83
2017-10-11T12:56:58.303Z,8.00
2017-10-11T12:59:26.594Z,6.73
2017-10-11T13:01:54.877Z,7.30
2017-10-11T13:04:23.170Z,8.83
2017-10-11T13:06:51.449Z,6.33
2017-10-11T13:09:19.762Z,7.53
2017-10-11T13:11:48.839Z,13.73
2017-10-11T13:14:17.134Z,5.83
2017-10-11T13:16:46.007Z,8.80
2017-10-11T13:19:14.564Z,5.90
2017-10-11T13:21:43.625Z,6.83
2017-10-11T13:24:11.949Z,6.83
2017-10-11T13:26:40.240Z,8.60
2017-10-11T13:29:09.331Z,11.20
2017-10-11T13:31:37.636Z,6.60
2017-10-11T13:34:06.681Z,5.97
2017-10-11T13:36:35.008Z,12.60
2017-10-11T13:39:03.295Z,11.43
2017-10-11T13:41:31.586Z,4.90
2017-10-11T13:43:59.888Z,5.77
2017-10-11T13:46:28.998Z,5.03
2017-10-11T13:48:57.287Z,4.77
2017-10-11T13:51:25.710Z,5.10
2017-10-11T13:53:54.438Z,4.13
2017-10-11T13:56:23.784Z,4.60
2017-10-11T13:58:52.947Z,4.90
2017-10-11T14:01:21.265Z,5.00
2017-10-11T14:03:49.610Z,4.57
2017-10-11T14:06:17.899Z,3.67
2017-10-11T14:08:46.192Z,5.40
2017-10-11T14:11:14.910Z,5.47
2017-10-11T14:13:43.272Z,5.37
2017-10-11T14:16:11.579Z,4.67
2017-10-11T14:18:39.865Z,5.37
2017-10-11T14:21:08.149Z,4.90
2017-10-11T14:23:36.486Z,4.20
2017-10-11T14:26:04.764Z,5.70
2017-10-11T14:28:33.079Z,5.60
2017-10-11T14:31:01.607Z,7.10
2017-10-11T14:33:29.923Z,5.30
2017-10-11T14:35:58.207Z,5.43
2017-10-11T14:38:26.490Z,4.00
2017-10-11T14:40:54.780Z,6.00
2017-10-11T14:43:23.113Z,4.17
2017-10-11T14:45:51.410Z,4.60
2017-10-11T14:48:20.466Z,5.60
2017-10-11T14:50:48.779Z,5.30
2017-10-11T14:53:17.117Z,4.80
2017-10-11T14:55:45.399Z,5.20
2017-10-11T14:58:13.683Z,4.83
2017-10-11T15:00:42.754Z,4.53
2017-10-11T15:03:11.047Z,4.10
2017-10-11T15:05:39.383Z,8.43
2017-10-11T15:08:07.662Z,3.43
2017-10-11T15:10:36.714Z,7.47
2017-10-11T15:13:05.036Z,3.87
2017-10-11T15:15:34.183Z,12.83
2017-10-11T15:18:02.576Z,4.00
2017-10-11T15:20:30.854Z,5.50
2017-10-11T15:22:59.142Z,5.23
2017-10-11T15:25:27.470Z,6.23
2017-10-11T15:27:55.775Z,4.73
2017-10-11T15:30:24.107Z,4.40
2017-10-11T15:32:53.195Z,4.00
2017-10-11T15:35:21.619Z,5.30
2017-10-11T15:37:49.902Z,5.73
2017-10-11T15:40:18.194Z,3.43
2017-10-11T15:42:46.532Z,5.93
2017-10-11T15:45:14.874Z,4.60
2017-10-11T15:47:43.250Z,3.77
2017-10-11T15:50:11.589Z,11.43
2017-10-11T15:52:39.944Z,5.37
2017-10-11T15:55:08.236Z,4.77
2017-10-11T15:57:36.564Z,4.30
2017-10-11T16:00:04.847Z,4.20
2017-10-11T16:02:33.162Z,3.57
2017-10-11T16:05:01.438Z,3.47
2017-10-11T16:07:29.722Z,4.73
2017-10-11T16:09:58.002Z,4.57
2017-10-11T16:12:26.278Z,4.10
2017-10-11T16:14:54.602Z,4.27
2017-10-11T16:17:22.888Z,4.57
2017-10-11T16:19:51.194Z,4.57
2017-10-11T16:22:27.082Z,3.60
2017-10-11T16:24:55.811Z,4.77
2017-10-11T16:27:24.175Z,6.30
2017-10-11T16:29:52.466Z,4.77
2017-10-11T16:32:20.780Z,4.60
2017-10-11T16:34:49.071Z,3.40
2017-10-11T16:37:17.487Z,4.60
2017-10-11T16:39:45.778Z,4.50
2017-10-11T16:42:14.082Z,4.00
2017-10-11T16:44:42.544Z,8.53
2017-10-11T16:47:10.826Z,15.70
2017-10-11T16:49:39.878Z,5.57
2017-10-11T16:52:08.934Z,4.93
2017-10-11T16:54:37.251Z,4.47
2017-10-11T16:57:06.386Z,8.60
2017-10-11T16:59:35.443Z,3.90
2017-10-11T17:02:03.724Z,6.10
2017-10-11T17:04:32.035Z,4.60
2017-10-11T17:07:00.333Z,4.90
2017-10-11T17:09:28.658Z,5.23
2017-10-11T17:11:57.738Z,4.40
2017-10-11T17:14:26.031Z,4.77
2017-10-11T17:16:54.354Z,6.17
2017-10-11T17:19:22.650Z,5.30
2017-10-11T17:21:50.988Z,5.07
2017-10-11T17:24:19.278Z,3.87
2017-10-11T17:26:48.460Z,6.80
2017-10-11T17:29:16.756Z,4.83
2017-10-11T17:31:45.048Z,4.87
2017-10-11T17:34:13.378Z,10.13
2017-10-11T17:36:41.688Z,5.73
2017-10-11T17:39:09.970Z,4.73
2017-10-11T17:41:38.317Z,10.27
2017-10-11T17:44:06.607Z,4.63
2017-10-11T17:46:34.903Z,4.43
2017-10-11T17:49:03.222Z,10.70
2017-10-11T17:51:31.514Z,4.10
2017-10-11T17:53:59.794Z,8.60
2017-10-11T17:56:28.881Z,4.87
2017-10-11T17:58:57.159Z,5.70
2017-10-11T18:01:25.446Z,6.60
2017-10-11T18:03:54.008Z,8.07
2017-10-11T18:06:22.298Z,4.30
2017-10-11T18:08:50.594Z,5.93
2017-10-11T18:11:18.877Z,5.13
2017-10-11T18:13:47.170Z,4.47
2017-10-11T18:16:16.361Z,4.40
2017-10-11T18:18:44.663Z,5.13
2017-10-11T18:21:12.972Z,4.40
2017-10-11T18:23:41.277Z,7.10
2017-10-11T18:26:09.556Z,4.60
2017-10-11T18:28:37.872Z,4.50
2017-10-11T18:31:06.156Z,4.70
2017-10-11T18:33:35.216Z,5.53
2017-10-11T18:36:04.248Z,4.30
2017-10-11T18:38:32.515Z,7.10
2017-10-11T18:41:00.799Z,5.77
2017-10-11T18:43:29.074Z,4.53
2017-10-11T18:45:57.353Z,3.90
2017-10-11T18:48:25.630Z,4.70
2017-10-11T18:50:53.916Z,4.17
2017-10-11T18:53:22.961Z,4.60
2017-10-11T18:55:51.277Z,4.73
2017-10-11T18:58:19.556Z,4.33
2017-10-11T19:00:47.842Z,4.60
2017-10-11T19:03:16.140Z,4.40
2017-10-11T19:05:44.457Z,4.97
2017-10-11T19:08:13.511Z,4.57
2017-10-11T19:10:41.815Z,6.37
2017-10-11T19:13:10.148Z,6.10
2017-10-11T19:15:39.215Z,7.80
2017-10-11T19:18:07.498Z,4.30
2017-10-11T19:20:35.788Z,5.80
2017-10-11T19:23:04.117Z,4.47
2017-10-11T19:25:33.168Z,4.70
2017-10-11T19:28:01.455Z,4.43
2017-10-11T19:30:29.771Z,4.27
2017-10-11T19:32:58.073Z,4.50
2017-10-11T19:35:26.554Z,4.50
2017-10-11T19:37:54.838Z,4.07
2017-10-11T19:40:23.143Z,3.73
2017-10-11T19:42:51.424Z,4.30
2017-10-11T19:45:19.707Z,4.00
2017-10-11T19:47:48.006Z,17.13
2017-10-11T19:50:16.316Z,4.00
2017-10-11T19:52:45.399Z,5.03
2017-10-11T19:55:13.693Z,3.60
2017-10-11T19:57:42.010Z,4.83
2017-10-11T20:00:10.324Z,5.03
2017-10-11T20:02:38.618Z,6.23
2017-10-11T20:05:06.911Z,3.20
2017-10-11T20:07:35.231Z,4.40
2017-10-11T20:10:03.517Z,3.27
2017-10-11T20:12:31.803Z,5.30
2017-10-11T20:15:00.090Z,4.03
2017-10-11T20:17:28.893Z,5.40
2017-10-11T20:19:57.176Z,3.30
2017-10-11T20:22:25.491Z,3.27
2017-10-11T20:24:53.777Z,3.50
2017-10-11T20:27:22.077Z,5.80
2017-10-11T20:29:51.163Z,4.63
2017-10-11T20:32:19.608Z,3.73
2017-10-11T20:34:49.029Z,3.67
2017-10-11T20:37:18.165Z,3.90
2017-10-11T20:39:46.480Z,3.30
2017-10-11T20:42:15.606Z,6.53
2017-10-11T20:44:44.665Z,3.13
2017-10-11T20:47:13.037Z,4.80
2017-10-11T20:49:41.350Z,3.30
2017-10-11T20:52:09.659Z,4.27
2017-10-11T20:54:38.736Z,4.77
2017-10-11T20:57:07.017Z,9.70
2017-10-11T20:59:35.326Z,4.00
2017-10-11T21:02:03.607Z,3.73
2017-10-11T21:04:31.922Z,5.07
2017-10-11T21:07:00.210Z,3.87
2017-10-11T21:09:28.570Z,4.40
2017-10-11T21:11:56.852Z,8.13
2017-10-11T21:14:25.288Z,3.17
2017-10-11T21:16:53.560Z,5.13
2017-10-11T21:19:21.862Z,3.63
2017-10-11T21:21:51.015Z,3.27
2017-10-11T21:24:19.351Z,4.77
2017-10-11T21:26:47.632Z,2.57
2017-10-11T21:29:15.966Z,3.50
2017-10-11T21:31:44.270Z,2.63
2017-10-11T21:34:12.726Z,2.67
2017-10-11T21:36:41.015Z,2.90
2017-10-11T21:39:10.063Z,4.43
2017-10-11T21:41:38.355Z,6.60
2017-10-11T21:44:06.632Z,3.57
2017-10-11T21:46:35.012Z,6.93
2017-10-11T21:49:03.344Z,2.80
2017-10-11T21:51:31.619Z,11.63
2017-10-11T21:53:59.910Z,1.93
2017-10-11T21:56:28.190Z,2.23
2017-10-11T21:58:56.475Z,2.00
2017-10-11T22:01:24.763Z,5.07
2017-10-11T22:03:53.086Z,7.30
2017-10-11T22:06:21.460Z,1.30
2017-10-11T22:08:49.803Z,2.00
2017-10-11T22:11:18.881Z,3.27
2017-10-11T22:13:47.259Z,3.07
2017-10-11T22:16:15.603Z,1.73
2017-10-11T22:18:43.994Z,3.13
2017-10-11T22:21:12.982Z,2.27
2017-10-11T22:23:41.334Z,3.00
2017-10-11T22:26:09.663Z,3.20
2017-10-11T22:28:38.764Z,2.83
2017-10-11T22:31:07.888Z,2.10
2017-10-11T22:33:36.210Z,3.00
2017-10-11T22:36:04.587Z,2.30
2017-10-11T22:38:32.892Z,1.97
2017-10-11T22:41:01.208Z,2.43
2017-10-11T22:43:29.484Z,2.53
2017-10-11T22:45:57.798Z,3.53
2017-10-11T22:48:26.110Z,4.00
2017-10-11T22:50:55.160Z,2.00
2017-10-11T22:53:23.451Z,5.87
2017-10-11T22:55:51.771Z,2.37
2017-10-11T22:58:20.056Z,2.50
2017-10-11T23:00:48.413Z,2.63
2017-10-11T23:03:16.709Z,2.33
2017-10-11T23:05:44.996Z,1.87
2017-10-11T23:08:13.291Z,1.70
2017-10-11T23:10:41.600Z,2.03
2017-10-11T23:13:09.910Z,1.60
2017-10-11T23:15:38.958Z,5.13
2017-10-11T23:18:07.235Z,2.80
2017-10-11T23:20:35.514Z,2.40
2017-10-11T23:23:03.799Z,1.83
2017-10-11T23:25:32.114Z,1.77
2017-10-11T23:28:00.423Z,1.63
2017-10-11T23:30:28.710Z,2.10
2017-10-11T23:32:56.999Z,2.90
2017-10-11T23:35:25.284Z,2.70
2017-10-11T23:37:53.561Z,2.37
2017-10-11T23:40:21.842Z,2.90
2017-10-11T23:42:50.162Z,16.67
2017-10-11T23:45:18.454Z,2.43
2017-10-11T23:47:46.819Z,2.80
2017-10-11T23:50:15.166Z,3.27
2017-10-11T23:52:44.234Z,2.40
2017-10-11T23:55:12.548Z,2.67
2017-10-11T23:57:40.856Z,2.10
